createdAt,value
2017-11-18T00:02:20.463Z,185.30
2017-11-18T00:04:48.021Z,175.62
2017-11-18T00:07:15.582Z,135.00
2017-11-18T00:09:43.180Z,150.65
2017-11-18T00:12:10.904Z,122.20
2017-11-18T00:14:38.467Z,126.38
2017-11-18T00:17:05.999Z,106.57
2017-11-18T00:19:33.988Z,128.43
2017-11-18T00:22:01.508Z,157.75
2017-11-18T00:24:29.036Z,190.27
2017-11-18T00:26:56.582Z,192.73
2017-11-18T00:29:24.124Z,213.60
2017-11-18T00:31:51.682Z,218.48
2017-11-18T00:34:19.445Z,208.85
2017-11-18T00:36:46.968Z,205.90
2017-11-18T00:39:14.493Z,238.95
2017-11-18T00:41:42.238Z,201.52
2017-11-18T00:44:09.807Z,214.12
2017-11-18T00:46:37.353Z,240.30
2017-11-18T00:49:04.919Z,209.37
2017-11-18T00:51:32.461Z,218.15
2017-11-18T00:54:17.640Z,209.68
2017-11-18T00:56:45.163Z,189.37
2017-11-18T00:59:12.683Z,187.62
2017-11-18T01:01:40.248Z,207.18
2017-11-18T01:04:08.178Z,175.07
2017-11-18T01:06:35.757Z,161.98
2017-11-18T01:09:03.699Z,172.85
2017-11-18T01:11:31.232Z,185.02
2017-11-18T01:13:58.755Z,164.27
2017-11-18T01:16:26.321Z,160.00
2017-11-18T01:18:53.848Z,181.85
2017-11-18T01:21:21.402Z,144.48
2017-11-18T01:23:49.214Z,149.70
2017-11-18T01:26:16.822Z,143.82
2017-11-18T01:28:44.415Z,143.68
2017-11-18T01:31:12.144Z,140.68
2017-11-18T01:33:39.705Z,154.18
2017-11-18T01:36:07.235Z,140.30
2017-11-18T01:38:34.824Z,134.37
2017-11-18T01:41:02.385Z,114.05
2017-11-18T01:43:29.976Z,100.72
2017-11-18T01:45:57.638Z,115.60
2017-11-18T01:48:25.147Z,89.53
2017-11-18T01:50:52.662Z,102.90
2017-11-18T01:53:20.485Z,93.10
2017-11-18T01:55:48.045Z,102.40
2017-11-18T01:58:15.576Z,102.72
2017-11-18T02:00:43.469Z,115.43
2017-11-18T02:03:11.008Z,120.43
2017-11-18T02:05:38.563Z,127.00
2017-11-18T02:08:06.352Z,161.23
2017-11-18T02:10:33.862Z,152.68
2017-11-18T02:13:01.395Z,159.07
2017-11-18T02:15:28.952Z,243.12
2017-11-18T02:17:56.487Z,154.85
2017-11-18T02:20:24.051Z,195.65
2017-11-18T02:22:52.024Z,265.15
2017-11-18T02:25:19.582Z,206.10
2017-11-18T02:27:47.111Z,210.40
2017-11-18T02:30:15.075Z,177.55
2017-11-18T02:32:42.596Z,173.45
2017-11-18T02:35:10.137Z,155.18
2017-11-18T02:37:38.075Z,147.52
2017-11-18T02:40:05.595Z,182.52
2017-11-18T02:42:33.160Z,198.90
2017-11-18T02:45:00.863Z,224.07
2017-11-18T02:47:28.436Z,150.87
2017-11-18T02:49:55.984Z,183.18
2017-11-18T02:52:23.729Z,296.85
2017-11-18T02:54:51.255Z,157.25
2017-11-18T02:57:18.776Z,161.68
2017-11-18T02:59:46.371Z,196.45
2017-11-18T03:02:13.894Z,367.15
2017-11-18T03:04:41.439Z,181.15
2017-11-18T03:07:09.182Z,145.52
2017-11-18T03:09:36.721Z,212.43
2017-11-18T03:12:04.271Z,192.73
2017-11-18T03:14:32.313Z,195.07
2017-11-18T03:16:59.839Z,274.92
2017-11-18T03:19:27.366Z,172.60
2017-11-18T03:21:54.924Z,178.43
2017-11-18T03:24:22.456Z,175.77
2017-11-18T03:26:49.983Z,160.73
2017-11-18T03:29:17.608Z,162.30
2017-11-18T03:31:45.135Z,164.57
2017-11-18T03:34:12.664Z,155.50
2017-11-18T03:36:40.240Z,153.68
2017-11-18T03:39:07.778Z,148.62
2017-11-18T03:41:35.343Z,132.18
2017-11-18T03:44:03.184Z,135.43
2017-11-18T03:46:30.700Z,130.12
2017-11-18T03:48:58.235Z,120.37
2017-11-18T03:51:26.107Z,111.70
2017-11-18T03:53:53.682Z,128.10
2017-11-18T03:56:21.209Z,110.70
2017-11-18T03:58:48.796Z,107.25
2017-11-18T04:01:16.331Z,111.25
2017-11-18T04:03:44.951Z,91.12
2017-11-18T04:06:12.653Z,120.05
2017-11-18T04:08:40.171Z,114.65
2017-11-18T04:11:07.704Z,116.95
2017-11-18T04:13:35.447Z,112.45
2017-11-18T04:16:03.016Z,95.78
2017-11-18T04:18:30.565Z,130.43
2017-11-18T04:20:58.410Z,115.50
2017-11-18T04:23:25.938Z,112.80
2017-11-18T04:25:53.460Z,111.70
2017-11-18T04:28:21.011Z,111.10
2017-11-18T04:30:48.567Z,111.25
2017-11-18T04:33:16.130Z,110.05
2017-11-18T04:35:43.984Z,112.97
2017-11-18T04:38:11.552Z,111.25
2017-11-18T04:40:39.113Z,77.25
2017-11-18T04:43:06.692Z,83.05
2017-11-18T04:45:34.254Z,57.97
2017-11-18T04:48:01.783Z,42.50
2017-11-18T04:50:29.551Z,37.03
2017-11-18T04:52:57.117Z,32.45
2017-11-18T04:55:24.670Z,31.45
2017-11-18T04:57:52.232Z,22.75
2017-11-18T05:00:19.750Z,21.92
2017-11-18T05:02:47.273Z,23.35
2017-11-18T05:05:15.051Z,22.23
2017-11-18T05:07:42.578Z,23.30
2017-11-18T05:10:10.125Z,22.90
2017-11-18T05:12:37.893Z,25.00
2017-11-18T05:15:05.448Z,26.80
2017-11-18T05:17:33.009Z,18.62
2017-11-18T05:20:00.755Z,26.80
2017-11-18T05:22:28.298Z,32.60
2017-11-18T05:24:55.811Z,27.52
2017-11-18T05:27:23.360Z,28.98
2017-11-18T05:29:50.908Z,25.05
2017-11-18T05:32:18.480Z,30.27
2017-11-18T05:34:46.023Z,24.15
2017-11-18T05:37:13.567Z,25.52
2017-11-18T05:39:41.091Z,33.25
2017-11-18T05:42:08.659Z,32.30
2017-11-18T05:44:36.199Z,28.65
2017-11-18T05:47:03.721Z,31.92
2017-11-18T05:49:31.303Z,29.33
2017-11-18T05:51:58.829Z,28.70
2017-11-18T05:54:26.340Z,23.62
2017-11-18T05:56:53.979Z,38.13
2017-11-18T05:59:21.501Z,25.88
2017-11-18T06:01:49.071Z,35.83
2017-11-18T06:04:16.808Z,30.33
2017-11-18T06:06:44.324Z,20.10
2017-11-18T06:09:12.788Z,25.23
2017-11-18T06:11:40.355Z,24.50
2017-11-18T06:14:07.865Z,21.90
2017-11-18T06:16:35.382Z,23.52
2017-11-18T06:19:03.122Z,17.90
2017-11-18T06:21:30.669Z,20.25
2017-11-18T06:23:58.187Z,15.77
2017-11-18T06:26:25.865Z,23.00
2017-11-18T06:28:53.424Z,24.08
2017-11-18T06:31:20.940Z,21.45
2017-11-18T06:33:48.670Z,26.08
2017-11-18T06:36:16.331Z,18.48
2017-11-18T06:38:43.855Z,24.50
2017-11-18T06:41:11.406Z,29.27
2017-11-18T06:43:38.932Z,23.95
2017-11-18T06:46:06.509Z,19.33
2017-11-18T06:48:34.234Z,22.95
2017-11-18T06:51:01.760Z,25.52
2017-11-18T06:53:29.270Z,29.70
2017-11-18T06:55:56.992Z,25.10
2017-11-18T06:58:24.508Z,28.02
2017-11-18T07:00:52.034Z,28.77
2017-11-18T07:03:19.863Z,30.08
2017-11-18T07:05:47.376Z,35.25
2017-11-18T07:08:15.925Z,33.33
2017-11-18T07:10:43.504Z,27.08
2017-11-18T07:13:11.048Z,27.52
2017-11-18T07:15:38.609Z,27.50
2017-11-18T07:18:06.582Z,21.27
2017-11-18T07:20:34.135Z,29.50
2017-11-18T07:23:01.694Z,28.10
2017-11-18T07:25:29.277Z,20.67
2017-11-18T07:27:56.812Z,22.83
2017-11-18T07:30:24.322Z,21.30
2017-11-18T07:32:52.140Z,24.10
2017-11-18T07:35:19.695Z,19.80
2017-11-18T07:37:47.458Z,22.52
2017-11-18T07:40:15.146Z,23.62
2017-11-18T07:42:42.691Z,25.37
2017-11-18T07:45:10.219Z,24.77
2017-11-18T07:47:38.103Z,29.45
2017-11-18T07:50:05.664Z,23.60
2017-11-18T07:52:33.223Z,22.83
2017-11-18T07:55:00.882Z,31.27
2017-11-18T07:57:28.410Z,23.92
2017-11-18T07:59:56.923Z,24.15
2017-11-18T08:02:24.507Z,29.67
2017-11-18T08:04:52.300Z,33.17
2017-11-18T08:07:19.908Z,37.70
2017-11-18T08:09:47.461Z,30.85
2017-11-18T08:12:15.038Z,38.05
2017-11-18T08:14:42.584Z,39.38
2017-11-18T08:17:10.148Z,35.72
2017-11-18T08:19:37.787Z,36.47
2017-11-18T08:22:05.365Z,36.22
2017-11-18T08:24:33.231Z,31.50
2017-11-18T08:27:00.790Z,34.50
2017-11-18T08:29:28.355Z,29.80
2017-11-18T08:31:56.112Z,23.83
2017-11-18T08:34:23.671Z,28.42
2017-11-18T08:36:51.335Z,28.73
2017-11-18T08:39:18.911Z,31.62
2017-11-18T08:41:46.483Z,46.97
2017-11-18T08:44:14.026Z,32.72
2017-11-18T08:46:41.588Z,33.60
2017-11-18T08:49:09.129Z,27.73
2017-11-18T08:51:36.688Z,30.35
2017-11-18T08:54:04.259Z,26.27
2017-11-18T08:56:31.785Z,26.50
2017-11-18T08:58:59.299Z,24.33
2017-11-18T09:01:27.429Z,23.27
2017-11-18T09:03:54.995Z,18.73
2017-11-18T09:06:22.576Z,23.15
2017-11-18T09:08:50.245Z,18.17
2017-11-18T09:11:17.983Z,14.55
2017-11-18T09:13:45.669Z,15.35
2017-11-18T09:16:13.442Z,16.15
2017-11-18T09:18:41.681Z,12.53
2017-11-18T09:21:09.444Z,13.70
2017-11-18T09:23:37.412Z,11.53
2017-11-18T09:26:05.013Z,11.33
2017-11-18T09:28:32.641Z,13.40
2017-11-18T09:31:00.480Z,9.50
2017-11-18T09:33:28.122Z,10.67
2017-11-18T09:35:55.835Z,8.13
2017-11-18T09:38:23.707Z,9.47
2017-11-18T09:40:51.555Z,13.50
2017-11-18T09:43:19.835Z,14.17
2017-11-18T09:45:47.912Z,13.90
2017-11-18T09:48:16.291Z,12.60
2017-11-18T09:50:44.268Z,11.50
2017-11-18T09:53:12.525Z,12.43
2017-11-18T09:55:40.705Z,12.47
2017-11-18T09:58:08.667Z,10.50
2017-11-18T10:00:36.943Z,11.83
2017-11-18T10:03:04.724Z,9.57
2017-11-18T10:05:32.576Z,17.43
2017-11-18T10:08:00.646Z,9.87
2017-11-18T10:10:28.511Z,18.30
2017-11-18T10:12:56.384Z,11.43
2017-11-18T10:15:24.449Z,8.60
2017-11-18T10:17:52.214Z,12.03
2017-11-18T10:20:20.078Z,13.17
2017-11-18T10:22:48.013Z,9.00
2017-11-18T10:25:17.654Z,8.23
2017-11-18T10:27:45.432Z,7.80
2017-11-18T10:30:13.612Z,9.03
2017-11-18T10:32:41.579Z,8.90
2017-11-18T10:35:09.324Z,14.03
2017-11-18T10:37:38.891Z,12.30
2017-11-18T10:40:06.707Z,14.30
2017-11-18T10:42:34.816Z,14.80
2017-11-18T10:45:03.145Z,14.97
2017-11-18T10:47:31.736Z,15.20
2017-11-18T10:50:00.417Z,12.40
2017-11-18T10:52:28.281Z,11.80
2017-11-18T10:54:56.144Z,16.05
2017-11-18T10:57:23.912Z,10.15
2017-11-18T10:59:52.410Z,13.02
2017-11-18T11:02:20.146Z,12.95
2017-11-18T11:04:48.024Z,13.20
2017-11-18T11:07:15.951Z,10.82
2017-11-18T11:09:44.124Z,9.98
2017-11-18T11:12:12.029Z,16.25
2017-11-18T11:14:40.042Z,6.25
2017-11-18T11:17:07.925Z,23.98
2017-11-18T11:19:35.730Z,8.25
2017-11-18T11:22:03.732Z,10.45
2017-11-18T11:24:31.667Z,6.72
2017-11-18T11:26:59.448Z,8.07
2017-11-18T11:29:28.235Z,8.68
2017-11-18T11:31:56.289Z,12.82
2017-11-18T11:34:24.157Z,8.95
2017-11-18T11:36:52.227Z,12.73
2017-11-18T11:39:19.997Z,13.02
2017-11-18T11:41:47.993Z,11.85
2017-11-18T11:44:16.136Z,10.80
2017-11-18T11:46:44.003Z,10.00
2017-11-18T11:49:11.763Z,14.63
2017-11-18T11:51:39.528Z,11.95
2017-11-18T11:54:07.083Z,10.27
2017-11-18T11:56:34.748Z,15.10
2017-11-18T11:59:03.330Z,12.18
2017-11-18T12:01:31.040Z,12.13
2017-11-18T12:03:58.965Z,10.27
2017-11-18T12:06:26.947Z,13.17
2017-11-18T12:08:54.702Z,12.07
2017-11-18T12:11:23.379Z,10.83
2017-11-18T12:13:51.352Z,11.70
2017-11-18T12:16:19.321Z,18.05
2017-11-18T12:18:47.146Z,15.40
2017-11-18T12:21:15.870Z,13.45
2017-11-18T12:23:43.808Z,15.02
2017-11-18T12:26:11.709Z,11.80
2017-11-18T12:28:40.201Z,14.02
2017-11-18T12:31:08.264Z,11.35
2017-11-18T12:33:35.942Z,13.30
2017-11-18T12:36:04.090Z,12.18
2017-11-18T12:38:31.963Z,13.52
2017-11-18T12:41:00.743Z,17.37
2017-11-18T12:43:28.712Z,18.62
2017-11-18T12:45:56.579Z,21.73
2017-11-18T12:48:24.460Z,14.35
2017-11-18T12:50:52.721Z,15.98
2017-11-18T12:53:20.490Z,16.48
2017-11-18T12:55:48.352Z,16.58
2017-11-18T12:58:16.523Z,12.80
2017-11-18T13:00:44.445Z,21.42
2017-11-18T13:03:12.149Z,20.92
2017-11-18T13:05:40.328Z,21.45
2017-11-18T13:08:09.012Z,20.00
2017-11-18T13:10:36.799Z,23.08
2017-11-18T13:13:08.849Z,22.35
2017-11-18T13:15:36.568Z,21.92
2017-11-18T13:18:04.267Z,17.10
2017-11-18T13:20:31.994Z,16.08
2017-11-18T13:22:59.665Z,17.70
2017-11-18T13:25:27.676Z,29.63
2017-11-18T13:27:55.219Z,18.92
2017-11-18T13:30:22.743Z,18.25
2017-11-18T13:32:51.466Z,16.90
2017-11-18T13:35:22.619Z,16.48
2017-11-18T13:37:50.634Z,23.73
2017-11-18T13:40:18.546Z,16.42
2017-11-18T13:42:47.234Z,19.40
2017-11-18T13:45:15.099Z,17.08
2017-11-18T13:47:43.580Z,19.80
2017-11-18T13:50:11.537Z,22.55
2017-11-18T13:52:39.620Z,23.25
2017-11-18T13:55:07.363Z,19.35
2017-11-18T13:57:37.644Z,23.60
2017-11-18T14:00:07.811Z,16.90
2017-11-18T14:02:35.798Z,21.02
2017-11-18T14:05:03.765Z,30.70
2017-11-18T14:07:33.947Z,25.15
2017-11-18T14:10:01.654Z,29.67
2017-11-18T14:12:29.429Z,26.95
2017-11-18T14:14:57.583Z,27.30
2017-11-18T14:17:25.436Z,29.85
2017-11-18T14:19:53.112Z,27.00
2017-11-18T14:22:20.875Z,27.23
2017-11-18T14:24:48.743Z,36.75
2017-11-18T14:27:16.609Z,24.45
2017-11-18T14:29:44.555Z,21.42
2017-11-18T14:32:12.346Z,21.65
2017-11-18T14:34:40.008Z,21.85
2017-11-18T14:37:08.178Z,17.85
2017-11-18T14:39:36.148Z,23.65
2017-11-18T14:42:03.745Z,27.85
2017-11-18T14:44:32.797Z,22.48
2017-11-18T14:47:00.665Z,18.83
2017-11-18T14:49:28.591Z,17.15
2017-11-18T14:51:56.501Z,27.08
2017-11-18T14:54:24.265Z,22.10
2017-11-18T14:56:51.999Z,21.48
2017-11-18T14:59:20.120Z,22.08
2017-11-18T15:01:48.273Z,18.20
2017-11-18T15:04:16.548Z,33.75
2017-11-18T15:06:44.722Z,22.70
2017-11-18T15:09:12.690Z,23.15
2017-11-18T15:11:40.689Z,16.10
2017-11-18T15:14:08.940Z,24.33
2017-11-18T15:19:47.676Z,19.17
2017-11-18T15:22:16.541Z,18.58
2017-11-18T15:24:50.270Z,20.62
2017-11-18T15:27:24.692Z,19.98
2017-11-18T15:30:02.606Z,12.93
2017-11-18T15:36:00.277Z,19.42
2017-11-18T15:38:33.673Z,15.15
2017-11-18T15:41:01.752Z,18.98
2017-11-18T15:49:43.065Z,20.10
2017-11-18T15:55:28.154Z,33.22
2017-11-18T15:57:56.028Z,14.20
2017-11-18T16:00:40.621Z,27.10
2017-11-18T16:03:08.959Z,26.80
2017-11-18T16:05:36.926Z,20.27
2017-11-18T16:08:04.485Z,25.90
2017-11-18T16:10:32.288Z,26.33
2017-11-18T16:13:00.015Z,22.33
2017-11-18T16:15:27.571Z,15.70
2017-11-18T16:17:55.590Z,19.73
2017-11-18T16:20:23.201Z,26.02
2017-11-18T16:22:50.776Z,13.62
2017-11-18T16:25:18.525Z,20.70
2017-11-18T16:27:46.083Z,14.20
2017-11-18T16:30:13.595Z,15.43
2017-11-18T16:32:41.405Z,14.35
2017-11-18T16:35:08.973Z,22.08
2017-11-18T16:37:36.544Z,16.05
2017-11-18T16:40:04.267Z,15.38
2017-11-18T16:42:32.153Z,18.02
2017-11-18T16:44:59.721Z,28.85
2017-11-18T16:47:28.402Z,23.80
2017-11-18T16:49:55.951Z,17.33
2017-11-18T16:52:23.518Z,20.73
2017-11-18T16:54:51.265Z,15.07
2017-11-18T16:57:18.784Z,14.98
2017-11-18T16:59:46.405Z,19.52
2017-11-18T17:02:14.164Z,13.62
2017-11-18T17:04:41.722Z,18.17
2017-11-18T17:07:09.387Z,16.50
2017-11-18T17:09:37.354Z,18.25
2017-11-18T17:12:05.534Z,20.25
2017-11-18T17:14:33.087Z,32.28
2017-11-18T17:17:00.792Z,18.62
2017-11-18T17:19:28.315Z,18.37
2017-11-18T17:21:55.892Z,15.45
2017-11-18T17:24:23.547Z,18.23
2017-11-18T17:26:51.089Z,18.95
2017-11-18T17:29:18.600Z,29.52
2017-11-18T17:31:46.409Z,21.42
2017-11-18T17:34:14.071Z,16.02
2017-11-18T17:36:41.631Z,17.00
2017-11-18T17:39:09.381Z,21.80
2017-11-18T17:41:37.127Z,16.27
2017-11-18T17:44:04.732Z,19.55
2017-11-18T17:46:32.668Z,23.67
2017-11-18T17:49:00.200Z,12.15
2017-11-18T17:51:27.769Z,22.33
2017-11-18T17:53:55.443Z,15.43
2017-11-18T17:56:22.965Z,14.57
2017-11-18T17:58:50.488Z,13.05
2017-11-18T18:01:18.244Z,8.98
2017-11-18T18:03:45.764Z,6.82
2017-11-18T18:06:13.378Z,9.57
2017-11-18T18:08:41.253Z,8.65
2017-11-18T18:11:08.828Z,17.05
2017-11-18T18:13:36.343Z,10.60
2017-11-18T18:16:04.188Z,8.52
2017-11-18T18:18:31.715Z,10.05
2017-11-18T18:20:59.241Z,14.60
2017-11-18T18:23:27.013Z,9.45
2017-11-18T18:25:54.620Z,13.80
2017-11-18T18:28:22.187Z,10.65
2017-11-18T18:30:49.877Z,15.88
2017-11-18T18:33:17.476Z,10.85
2017-11-18T18:35:45.127Z,20.20
2017-11-18T18:38:12.966Z,16.73
2017-11-18T18:40:40.642Z,12.20
2017-11-18T18:43:08.492Z,14.55
2017-11-18T18:45:36.664Z,14.68
2017-11-18T18:48:04.428Z,20.10
2017-11-18T18:50:31.988Z,15.30
2017-11-18T18:52:59.948Z,12.43
2017-11-18T18:55:27.855Z,13.88
2017-11-18T18:57:55.587Z,18.83
2017-11-18T19:00:23.760Z,17.92
2017-11-18T19:02:51.524Z,15.23
2017-11-18T19:05:19.287Z,14.50
2017-11-18T19:07:47.564Z,9.15
2017-11-18T19:10:15.241Z,10.27
2017-11-18T19:12:42.903Z,13.80
2017-11-18T19:15:11.267Z,14.32
2017-11-18T19:17:38.795Z,22.65
2017-11-18T19:20:06.502Z,9.43
2017-11-18T19:22:34.166Z,18.15
2017-11-18T19:25:01.913Z,15.90
2017-11-18T19:27:29.662Z,14.50
2017-11-18T19:29:57.466Z,12.32
2017-11-18T19:32:25.106Z,17.42
2017-11-18T19:34:52.763Z,16.35
2017-11-18T19:37:20.713Z,11.18
2017-11-18T19:39:48.245Z,8.57
2017-11-18T19:42:15.854Z,16.67
2017-11-18T19:44:43.613Z,13.77
2017-11-18T19:47:11.173Z,8.38
2017-11-18T19:49:38.733Z,20.25
2017-11-18T19:52:06.495Z,11.48
2017-11-18T19:54:34.097Z,9.60
2017-11-18T19:57:01.628Z,14.57
2017-11-18T19:59:29.481Z,14.07
2017-11-18T20:01:57.845Z,7.55
2017-11-18T20:04:25.624Z,12.20
2017-11-18T20:06:53.694Z,15.75
2017-11-18T20:09:21.418Z,15.48
2017-11-18T20:11:48.950Z,10.50
2017-11-18T20:14:16.695Z,9.93
2017-11-18T20:16:44.391Z,13.90
2017-11-18T20:19:12.484Z,12.55
2017-11-18T20:21:40.248Z,12.88
2017-11-18T20:24:07.920Z,14.55
2017-11-18T20:26:35.532Z,18.85
2017-11-18T20:29:03.572Z,19.75
2017-11-18T20:31:31.333Z,15.98
2017-11-18T20:33:59.099Z,9.82
2017-11-18T20:36:27.067Z,11.63
2017-11-18T20:38:54.651Z,7.40
2017-11-18T20:41:22.595Z,12.37
2017-11-18T20:43:51.322Z,10.68
2017-11-18T20:46:19.146Z,9.15
2017-11-18T20:48:47.056Z,11.52
2017-11-18T20:51:15.096Z,20.35
2017-11-18T20:53:42.926Z,8.27
2017-11-18T20:56:10.609Z,11.12
2017-11-18T20:58:38.682Z,14.45
2017-11-18T21:01:06.548Z,7.70
2017-11-18T21:03:34.414Z,11.45
2017-11-18T21:06:03.719Z,9.85
2017-11-18T21:08:31.888Z,12.50
2017-11-18T21:10:59.650Z,11.05
2017-11-18T21:13:27.736Z,13.32
2017-11-18T21:15:56.026Z,11.73
2017-11-18T21:18:23.634Z,7.10
2017-11-18T21:20:52.483Z,20.05
2017-11-18T21:23:20.222Z,10.77
2017-11-18T21:25:47.786Z,9.10
2017-11-18T21:28:16.358Z,12.50
2017-11-18T21:30:44.333Z,11.73
2017-11-18T21:33:11.975Z,9.75
2017-11-18T21:35:39.956Z,16.77
2017-11-18T21:38:07.820Z,14.05
2017-11-18T21:40:35.630Z,9.93
2017-11-18T21:43:04.123Z,13.43
2017-11-18T21:45:32.033Z,10.73
2017-11-18T21:47:59.568Z,16.70
2017-11-18T21:50:27.458Z,8.57
2017-11-18T21:52:55.232Z,15.02
2017-11-18T21:55:23.621Z,9.57
2017-11-18T21:57:51.456Z,13.98
2017-11-18T22:00:19.767Z,12.85
2017-11-18T22:02:47.620Z,16.80
2017-11-18T22:05:15.684Z,10.05
2017-11-18T22:07:43.956Z,13.10
2017-11-18T22:10:11.513Z,8.88
2017-11-18T22:12:39.329Z,10.55
2017-11-18T22:15:06.919Z,11.60
2017-11-18T22:17:34.513Z,11.38
2017-11-18T22:20:02.163Z,14.75
2017-11-18T22:22:29.721Z,10.02
2017-11-18T22:24:58.312Z,5.82
2017-11-18T22:27:26.174Z,10.80
2017-11-18T22:29:54.043Z,11.00
2017-11-18T22:32:22.006Z,7.65
2017-11-18T22:34:50.589Z,12.37
2017-11-18T22:37:18.369Z,13.70
2017-11-18T22:39:45.975Z,11.45
2017-11-18T22:42:13.779Z,7.82
2017-11-18T22:44:41.441Z,14.63
2017-11-18T22:47:09.203Z,14.07
2017-11-18T22:49:37.077Z,6.50
2017-11-18T22:52:04.596Z,11.48
2017-11-18T22:54:32.107Z,8.93
2017-11-18T22:56:59.706Z,10.02
2017-11-18T22:59:27.232Z,17.50
2017-11-18T23:01:54.865Z,12.43
2017-11-18T23:04:22.723Z,12.75
2017-11-18T23:06:50.250Z,12.95
2017-11-18T23:09:17.768Z,12.32
2017-11-18T23:11:45.409Z,15.50
2017-11-18T23:14:12.924Z,12.50
2017-11-18T23:16:40.435Z,10.15
2017-11-18T23:19:08.190Z,14.48
2017-11-18T23:21:35.751Z,8.05
2017-11-18T23:24:03.307Z,28.12
2017-11-18T23:26:31.109Z,23.87
2017-11-18T23:28:58.624Z,9.95
2017-11-18T23:31:26.156Z,13.70
2017-11-18T23:33:53.851Z,7.22
2017-11-18T23:36:21.417Z,6.43
2017-11-18T23:38:48.943Z,7.43
2017-11-18T23:41:16.748Z,10.05
2017-11-18T23:46:20.049Z,6.00
2017-11-18T23:48:47.583Z,7.57
2017-11-18T23:51:15.124Z,7.82
2017-11-18T23:53:43.242Z,5.70
2017-11-18T23:56:10.967Z,3.97
2017-11-18T23:58:38.576Z,4.03
